Time;durP1;ratioP1;P1;durP2;ratioP2;P2;SDS_P1;SDS_P2;PMS_P1;PMS_P2;Temp;Humidity;BMP_temperature;BMP_pressure;BME280_temperature;BME280_humidity;BME280_pressure;Samples;Min_cycle;Max_cycle;Signal;HPM_P1;HPM_P2
2021/12/22 00:00:00;;;;;;;;;;;-4.70;96.50;;;;;;4979818;28;20101;-64
2021/12/22 00:02:29;;;;;;;;;;;-4.70;96.40;;;;;;4986353;28;19914;-64
2021/12/22 00:04:56;;;;;;;;;;;-4.60;96.30;;;;;;4986221;28;19961;-64
2021/12/22 00:07:22;;;;;;;;;;;-4.70;96.10;;;;;;4986561;28;19913;-65
2021/12/22 00:09:47;;;;;;;;;;;-4.70;96.20;;;;;;4986404;28;19910;-65
2021/12/22 00:12:13;;;;;;;;;;;-4.70;96.30;;;;;;4986337;28;19906;-64
2021/12/22 00:14:39;;;;;;;;;;;-4.60;96.30;;;;;;4985814;28;19933;-65
2021/12/22 00:17:04;;;;;;;;;;;-4.70;96.10;;;;;;4985173;28;19906;-63
2021/12/22 00:19:30;;;;;;;;;;;-4.80;96.10;;;;;;4985158;28;19910;-65
2021/12/22 00:21:56;;;;;;;;;;;-4.70;96.10;;;;;;4986288;28;20108;-65
2021/12/22 00:24:21;;;;;;;;;;;-4.70;95.80;;;;;;4984721;28;19953;-65
2021/12/22 00:26:47;;;;;;;;;;;-4.80;95.80;;;;;;4986156;28;19913;-65
2021/12/22 00:29:14;;;;;;;;;;;-4.90;95.80;;;;;;4985509;28;19973;-64
2021/12/22 00:31:56;;;;;;;;;;;-5.00;95.90;;;;;;4985991;28;19969;-65
2021/12/22 00:34:25;;;;;;;;;;;-4.90;96.00;;;;;;4985739;28;19913;-65
2021/12/22 00:36:50;;;;;;;;;;;-5.00;95.70;;;;;;4984854;28;20205;-65
2021/12/22 00:39:16;;;;;;;;;;;-5.00;95.70;;;;;;4985667;28;19917;-65
2021/12/22 00:41:42;;;;;;;;;;;-5.10;95.80;;;;;;4985670;28;20228;-65
2021/12/22 00:44:07;;;;;;;;;;;-5.10;95.70;;;;;;4985280;28;19937;-63
2021/12/22 00:46:33;;;;;;;;;;;-5.10;95.70;;;;;;4985538;28;19928;-65
2021/12/22 00:48:59;;;;;;;;;;;-5.10;95.70;;;;;;4985529;28;19909;-65
2021/12/22 00:51:24;;;;;;;;;;;-5.10;95.70;;;;;;4985567;28;20113;-64
2021/12/22 00:53:50;;;;;;;;;;;-5.10;95.60;;;;;;4985415;28;19977;-64
2021/12/22 00:56:16;;;;;;;;;;;-5.20;95.50;;;;;;4985176;28;19906;-65
2021/12/22 00:58:41;;;;;;;;;;;-5.30;95.90;;;;;;4984945;28;19909;-65
2021/12/22 01:01:07;;;;;;;;;;;-5.40;96.10;;;;;;4985429;28;20180;-64
2021/12/22 01:03:35;;;;;;;;;;;-5.30;96.00;;;;;;4985337;28;19912;-65
2021/12/22 01:06:02;;;;;;;;;;;-5.30;96.10;;;;;;4982636;28;19929;-65
2021/12/22 01:08:28;;;;;;;;;;;-5.20;96.00;;;;;;4982524;28;19977;-64
2021/12/22 01:10:54;;;;;;;;;;;-5.20;95.90;;;;;;4984211;28;19906;-64
2021/12/22 01:13:20;;;;;;;;;;;-5.30;95.60;;;;;;4984039;28;20209;-65
2021/12/22 01:15:45;;;;;;;;;;;-5.30;95.80;;;;;;4983658;28;20084;-64
2021/12/22 01:18:14;;;;;;;;;;;-5.40;95.90;;;;;;4983799;28;20288;-65
2021/12/22 01:23:25;;;;;;;;;;;-5.40;95.80;;;;;;4983920;28;19912;-65
2021/12/22 01:25:51;;;;;;;;;;;-5.40;95.70;;;;;;4983413;28;19945;-65
2021/12/22 01:28:17;;;;;;;;;;;-5.30;95.30;;;;;;4983725;28;20212;-64
2021/12/22 01:30:45;;;;;;;;;;;-5.40;95.30;;;;;;4983457;28;20089;-64
2021/12/22 01:33:11;;;;;;;;;;;-5.40;95.40;;;;;;4983599;28;19906;-64
2021/12/22 01:35:37;;;;;;;;;;;-5.40;95.40;;;;;;4983305;28;19906;-64
2021/12/22 01:38:03;;;;;;;;;;;-5.30;95.50;;;;;;4983486;28;20208;-64
2021/12/22 01:40:29;;;;;;;;;;;-5.30;95.50;;;;;;4983572;28;20036;-66
2021/12/22 01:42:55;;;;;;;;;;;-5.20;95.50;;;;;;4982400;28;19969;-66
2021/12/22 01:45:56;;;;;;;;;;;-5.30;95.40;;;;;;4983144;28;20225;-66
2021/12/22 01:51:21;;;;;;;;;;;-5.30;95.40;;;;;;4983514;28;19952;-66
2021/12/22 01:53:47;;;;;;;;;;;-5.20;95.30;;;;;;4966472;28;19910;-66
2021/12/22 01:58:43;;;;;;;;;;;-5.20;95.10;;;;;;4983955;28;20208;-66
2021/12/22 02:01:10;;;;;;;;;;;-5.20;95.20;;;;;;4983760;28;19905;-66
2021/12/22 02:03:39;;;;;;;;;;;-5.10;95.10;;;;;;4982231;28;19906;-66
2021/12/22 02:06:05;;;;;;;;;;;-5.20;94.90;;;;;;4982048;28;19906;-65
2021/12/22 02:08:32;;;;;;;;;;;-5.30;94.90;;;;;;4983276;28;19906;-65
2021/12/22 02:10:58;;;;;;;;;;;-5.30;95.10;;;;;;4982090;28;19913;-66
2021/12/22 02:13:30;;;;;;;;;;;-5.30;95.00;;;;;;4983202;28;20041;-66
2021/12/22 02:15:55;;;;;;;;;;;-5.30;95.00;;;;;;4982664;28;19913;-65
2021/12/22 02:18:22;;;;;;;;;;;-5.20;95.00;;;;;;4981768;28;19910;-66
2021/12/22 02:20:48;;;;;;;;;;;-5.30;94.80;;;;;;4981664;28;19917;-66
2021/12/22 02:23:14;;;;;;;;;;;-5.30;94.80;;;;;;4982999;28;19910;-65
2021/12/22 02:25:49;;;;;;;;;;;-5.30;94.80;;;;;;4982665;28;19905;-65
2021/12/22 02:28:24;;;;;;;;;;;-5.30;94.70;;;;;;4982937;28;20102;-65
2021/12/22 02:30:51;;;;;;;;;;;-5.30;94.90;;;;;;4982996;28;19980;-66
2021/12/22 02:33:23;;;;;;;;;;;-5.30;94.70;;;;;;4983039;28;19906;-66
2021/12/22 02:36:08;;;;;;;;;;;-5.40;94.50;;;;;;4980280;28;19906;-65
2021/12/22 02:38:39;;;;;;;;;;;-5.60;94.90;;;;;;4963635;29;19919;-66
2021/12/22 02:41:07;;;;;;;;;;;-5.70;95.20;;;;;;4963547;29;19945;-66
2021/12/22 02:43:34;;;;;;;;;;;-5.60;95.20;;;;;;4963626;28;19906;-66
2021/12/22 02:46:00;;;;;;;;;;;-5.60;95.10;;;;;;4963288;28;19906;-66
2021/12/22 02:48:32;;;;;;;;;;;-5.60;94.90;;;;;;4963404;28;19981;-66
2021/12/22 02:51:00;;;;;;;;;;;-5.70;95.10;;;;;;4944604;29;19929;-65
2021/12/22 02:53:37;;;;;;;;;;;-5.70;95.10;;;;;;4944295;29;19907;-65
2021/12/22 02:56:13;;;;;;;;;;;-5.70;95.10;;;;;;4970478;28;19913;-65
2021/12/22 02:58:52;;;;;;;;;;;-5.60;95.10;;;;;;4982659;28;19920;-65
2021/12/22 03:04:06;;;;;;;;;;;-5.60;95.10;;;;;;4982835;28;19953;-65
2021/12/22 03:06:36;;;;;;;;;;;-5.60;94.90;;;;;;4981563;28;19913;-65
2021/12/22 03:09:25;;;;;;;;;;;-5.70;94.90;;;;;;4983028;28;19933;-65
2021/12/22 03:11:51;;;;;;;;;;;-5.70;94.60;;;;;;4982966;28;19913;-65
2021/12/22 03:14:17;;;;;;;;;;;-5.70;94.90;;;;;;4982636;28;19913;-65
2021/12/22 03:16:43;;;;;;;;;;;-5.80;95.00;;;;;;4981580;28;19910;-65
2021/12/22 03:19:13;;;;;;;;;;;-5.80;94.90;;;;;;4981287;28;19974;-65
2021/12/22 03:21:41;;;;;;;;;;;-5.70;94.90;;;;;;4982770;28;20216;-65
2021/12/22 03:24:07;;;;;;;;;;;-5.70;94.80;;;;;;4982650;28;19920;-65
2021/12/22 03:26:32;;;;;;;;;;;-5.80;94.90;;;;;;4982654;28;19921;-65
2021/12/22 03:28:58;;;;;;;;;;;-5.80;94.80;;;;;;4982576;28;19933;-65
2021/12/22 03:31:24;;;;;;;;;;;-5.90;95.00;;;;;;4983242;28;20133;-65
2021/12/22 03:33:49;;;;;;;;;;;-5.80;95.00;;;;;;4985969;28;19906;-65
2021/12/22 03:36:15;;;;;;;;;;;-5.90;94.90;;;;;;4985865;28;19949;-65
2021/12/22 03:38:42;;;;;;;;;;;-6.00;95.20;;;;;;4985897;28;19910;-65
2021/12/22 03:41:08;;;;;;;;;;;-5.90;95.50;;;;;;4986112;28;19906;-65
2021/12/22 03:43:34;;;;;;;;;;;-6.00;95.60;;;;;;4984686;28;19977;-65
2021/12/22 03:46:00;;;;;;;;;;;-6.00;95.70;;;;;;4985597;28;19910;-65
2021/12/22 03:48:26;;;;;;;;;;;-6.00;95.70;;;;;;4985551;28;19910;-65
2021/12/22 03:50:52;;;;;;;;;;;-6.00;95.70;;;;;;4985351;28;20263;-65
2021/12/22 03:53:18;;;;;;;;;;;-6.00;95.80;;;;;;4985779;28;19906;-65
2021/12/22 03:55:43;;;;;;;;;;;-6.00;95.80;;;;;;4984126;28;19913;-65
2021/12/22 03:58:09;;;;;;;;;;;-6.10;95.80;;;;;;4985839;28;19982;-65
2021/12/22 04:00:39;;;;;;;;;;;-6.00;95.80;;;;;;4985488;28;19905;-65
2021/12/22 04:03:05;;;;;;;;;;;-6.10;95.80;;;;;;4985544;28;19906;-65
2021/12/22 04:05:31;;;;;;;;;;;-6.00;95.90;;;;;;4984893;28;19906;-65
2021/12/22 04:07:57;;;;;;;;;;;-6.00;95.80;;;;;;4985568;28;20064;-65
2021/12/22 04:10:23;;;;;;;;;;;-6.00;95.80;;;;;;4985584;28;19906;-65
2021/12/22 04:12:55;;;;;;;;;;;-5.90;95.90;;;;;;4985557;28;19922;-65
2021/12/22 04:15:22;;;;;;;;;;;-5.90;95.80;;;;;;4985111;28;20184;-65
2021/12/22 04:17:48;;;;;;;;;;;-5.90;95.70;;;;;;4985623;28;20028;-65
2021/12/22 04:20:14;;;;;;;;;;;-6.00;95.80;;;;;;4983995;28;19961;-66
2021/12/22 04:22:40;;;;;;;;;;;-5.90;95.90;;;;;;4985113;28;19977;-65
2021/12/22 04:25:07;;;;;;;;;;;-5.90;95.50;;;;;;4984659;28;19906;-65
2021/12/22 04:27:33;;;;;;;;;;;-6.00;95.40;;;;;;4985197;28;19906;-65
2021/12/22 04:29:59;;;;;;;;;;;-6.10;95.40;;;;;;4984808;28;19917;-65
2021/12/22 04:32:25;;;;;;;;;;;-6.10;95.50;;;;;;4984998;28;20153;-65
2021/12/22 04:34:50;;;;;;;;;;;-6.00;95.30;;;;;;4984439;28;19913;-65
2021/12/22 04:37:16;;;;;;;;;;;-6.10;95.00;;;;;;4984780;28;19906;-65
2021/12/22 04:39:41;;;;;;;;;;;-6.10;95.10;;;;;;4984556;28;20212;-65
2021/12/22 04:42:07;;;;;;;;;;;-6.20;95.30;;;;;;4984725;28;19973;-65
2021/12/22 04:44:33;;;;;;;;;;;-6.10;95.40;;;;;;4983392;28;19965;-65
2021/12/22 04:46:59;;;;;;;;;;;-6.20;95.30;;;;;;4984871;28;20005;-65
2021/12/22 04:49:26;;;;;;;;;;;-6.30;95.50;;;;;;4984244;28;19925;-65
2021/12/22 04:51:53;;;;;;;;;;;-6.20;95.30;;;;;;4984611;28;20192;-65
2021/12/22 04:56:45;;;;;;;;;;;-6.10;94.90;;;;;;4984488;28;20024;-65
2021/12/22 04:59:11;;;;;;;;;;;-6.10;94.80;;;;;;4984345;28;20117;-65
2021/12/22 05:01:36;;;;;;;;;;;-6.10;95.00;;;;;;4984390;28;19906;-65
2021/12/22 05:04:02;;;;;;;;;;;-6.10;94.90;;;;;;4984304;28;20017;-65
2021/12/22 05:06:28;;;;;;;;;;;-6.10;95.20;;;;;;4983004;28;19906;-65
2021/12/22 05:08:53;;;;;;;;;;;-6.20;95.10;;;;;;4984375;28;19943;-66
2021/12/22 05:11:19;;;;;;;;;;;-6.20;95.00;;;;;;4984460;28;19945;-66
2021/12/22 05:13:45;;;;;;;;;;;-6.20;95.00;;;;;;4984327;28;19912;-66
2021/12/22 05:16:17;;;;;;;;;;;-6.30;95.10;;;;;;4984262;28;19905;-66
2021/12/22 05:18:53;;;;;;;;;;;-6.30;95.10;;;;;;4983389;28;19917;-65
2021/12/22 05:21:21;;;;;;;;;;;-6.20;95.10;;;;;;4984110;28;19952;-63
2021/12/22 05:23:50;;;;;;;;;;;-6.10;94.70;;;;;;4983269;28;19945;-65
2021/12/22 05:26:16;;;;;;;;;;;-6.20;94.30;;;;;;4984047;28;19937;-64
2021/12/22 05:31:10;;;;;;;;;;;-6.40;94.90;;;;;;4987590;28;19922;-70
2021/12/22 05:33:37;;;;;;;;;;;-6.40;94.80;;;;;;5015879;28;19918;-71
2021/12/22 05:36:03;;;;;;;;;;;-6.40;94.80;;;;;;4984334;28;19929;-69
2021/12/22 05:38:28;;;;;;;;;;;-6.30;94.90;;;;;;4984618;28;19988;-68
2021/12/22 05:40:54;;;;;;;;;;;-6.20;94.60;;;;;;4984439;28;20147;-69
2021/12/22 05:43:20;;;;;;;;;;;-6.10;94.40;;;;;;4984448;28;19953;-69
2021/12/22 05:45:45;;;;;;;;;;;-6.10;94.60;;;;;;4983992;28;19949;-69
2021/12/22 05:48:11;;;;;;;;;;;-6.00;94.60;;;;;;4984413;28;19913;-69
2021/12/22 05:50:37;;;;;;;;;;;-5.90;94.40;;;;;;4984381;28;20260;-69
2021/12/22 05:53:03;;;;;;;;;;;-6.00;94.30;;;;;;4984531;28;19913;-70
2021/12/22 05:55:29;;;;;;;;;;;-6.00;94.20;;;;;;4982118;28;20263;-70
2021/12/22 05:57:54;;;;;;;;;;;-6.10;94.40;;;;;;4984336;28;20004;-70
2021/12/22 06:00:22;;;;;;;;;;;-6.10;94.60;;;;;;4993211;28;19981;-69
2021/12/22 06:02:48;;;;;;;;;;;-6.30;94.70;;;;;;5003752;28;19906;-69
2021/12/22 06:05:13;;;;;;;;;;;-6.30;94.70;;;;;;5002333;28;20089;-69
2021/12/22 06:07:39;;;;;;;;;;;-6.30;94.60;;;;;;5003703;28;19906;-70
2021/12/22 06:10:05;;;;;;;;;;;-6.40;94.90;;;;;;5003564;28;19905;-68
2021/12/22 06:12:31;;;;;;;;;;;-6.40;94.70;;;;;;5002252;28;19906;-68
2021/12/22 06:14:57;;;;;;;;;;;-6.50;94.60;;;;;;4982909;28;19917;-67
2021/12/22 06:17:22;;;;;;;;;;;-6.50;94.40;;;;;;4983546;28;19906;-67
2021/12/22 06:19:48;;;;;;;;;;;-6.50;94.50;;;;;;4982453;28;20268;-66
2021/12/22 06:22:14;;;;;;;;;;;-6.60;94.70;;;;;;4983895;28;19913;-66
2021/12/22 06:24:39;;;;;;;;;;;-6.50;94.70;;;;;;4983590;28;19906;-66
2021/12/22 06:27:05;;;;;;;;;;;-6.60;94.60;;;;;;4982059;28;20089;-67
2021/12/22 06:29:31;;;;;;;;;;;-6.60;94.70;;;;;;4982184;28;19961;-67
2021/12/22 06:31:57;;;;;;;;;;;-6.40;94.70;;;;;;4982529;28;20108;-68
2021/12/22 06:34:22;;;;;;;;;;;-6.40;94.50;;;;;;4983426;28;19913;-67
2021/12/22 06:36:48;;;;;;;;;;;-6.40;94.60;;;;;;4983407;28;19937;-68
2021/12/22 06:39:15;;;;;;;;;;;-6.40;94.70;;;;;;4983676;28;19910;-67
2021/12/22 06:41:41;;;;;;;;;;;-6.40;94.90;;;;;;4982536;28;19906;-68
2021/12/22 06:44:07;;;;;;;;;;;-6.40;94.90;;;;;;4984446;28;19921;-68
2021/12/22 06:46:32;;;;;;;;;;;-6.50;94.80;;;;;;4983189;28;20197;-68
2021/12/22 06:48:58;;;;;;;;;;;-6.50;94.90;;;;;;4984152;28;20204;-67
2021/12/22 06:51:24;;;;;;;;;;;-6.60;94.80;;;;;;4982232;28;20233;-68
2021/12/22 06:53:49;;;;;;;;;;;-6.60;95.00;;;;;;4983893;28;19905;-67
2021/12/22 06:56:15;;;;;;;;;;;-6.60;94.70;;;;;;4982756;28;19976;-67
2021/12/22 06:58:41;;;;;;;;;;;-6.60;95.00;;;;;;4966132;28;19918;-67
2021/12/22 07:01:06;;;;;;;;;;;-6.70;94.90;;;;;;4998456;28;19914;-68
2021/12/22 07:03:32;;;;;;;;;;;-6.60;94.80;;;;;;5002981;28;19929;-68
2021/12/22 07:05:58;;;;;;;;;;;-6.70;94.70;;;;;;5002230;28;20224;-67
2021/12/22 07:08:23;;;;;;;;;;;-6.60;94.80;;;;;;5005109;28;19906;-67
2021/12/22 07:10:49;;;;;;;;;;;-6.70;94.80;;;;;;5005673;28;19960;-67
2021/12/22 07:13:15;;;;;;;;;;;-6.70;94.80;;;;;;5004377;28;20192;-67
2021/12/22 07:15:43;;;;;;;;;;;-6.70;94.90;;;;;;5004951;28;19913;-67
2021/12/22 07:18:10;;;;;;;;;;;-6.70;94.80;;;;;;5004096;28;19917;-67
2021/12/22 07:20:36;;;;;;;;;;;-6.70;94.70;;;;;;5004554;28;20177;-67
2021/12/22 07:23:02;;;;;;;;;;;-6.60;94.80;;;;;;5005336;28;19954;-67
2021/12/22 07:25:27;;;;;;;;;;;-6.60;94.80;;;;;;5005169;28;20112;-66
2021/12/22 07:27:53;;;;;;;;;;;-6.60;94.70;;;;;;5005574;28;19906;-67
2021/12/22 07:30:19;;;;;;;;;;;-6.60;94.40;;;;;;5004962;28;19910;-67
2021/12/22 07:32:44;;;;;;;;;;;-6.60;94.50;;;;;;5004034;28;20247;-67
2021/12/22 07:35:24;;;;;;;;;;;-6.70;94.60;;;;;;5005245;28;19972;-67
2021/12/22 07:38:11;;;;;;;;;;;-6.70;94.70;;;;;;4997709;28;20311;-68
2021/12/22 07:40:36;;;;;;;;;;;-6.60;94.80;;;;;;4982976;28;20115;-68
2021/12/22 07:43:02;;;;;;;;;;;-6.60;94.80;;;;;;4985565;28;19933;-68
2021/12/22 07:45:28;;;;;;;;;;;-6.60;94.80;;;;;;4985126;28;20204;-68
2021/12/22 07:47:54;;;;;;;;;;;-6.50;94.80;;;;;;4985645;28;19965;-68
2021/12/22 07:50:19;;;;;;;;;;;-6.40;94.90;;;;;;4984087;28;20032;-68
2021/12/22 07:52:45;;;;;;;;;;;-6.30;94.80;;;;;;4984159;28;20200;-68
2021/12/22 07:55:11;;;;;;;;;;;-6.20;94.70;;;;;;4984871;28;19910;-68
2021/12/22 07:57:36;;;;;;;;;;;-6.20;94.60;;;;;;4983865;28;20162;-68
2021/12/22 08:00:04;;;;;;;;;;;-6.20;94.70;;;;;;4984896;28;19953;-68
2021/12/22 08:02:30;;;;;;;;;;;-6.10;94.80;;;;;;4974659;28;19996;-68
2021/12/22 08:04:55;;;;;;;;;;;-6.10;94.80;;;;;;5004617;28;20147;-68
2021/12/22 08:07:21;;;;;;;;;;;-6.20;94.90;;;;;;4987873;28;19910;-67
2021/12/22 08:09:47;;;;;;;;;;;-6.10;95.00;;;;;;4983853;28;19906;-67
2021/12/22 08:12:12;;;;;;;;;;;-6.20;95.10;;;;;;4985094;28;19917;-67
2021/12/22 08:14:39;;;;;;;;;;;-6.10;95.10;;;;;;4984727;28;20046;-67
2021/12/22 08:17:06;;;;;;;;;;;-6.10;95.10;;;;;;4984901;28;19913;-67
2021/12/22 08:19:32;;;;;;;;;;;-6.00;95.20;;;;;;4984614;28;19970;-67
2021/12/22 08:21:57;;;;;;;;;;;-6.00;95.10;;;;;;5004426;28;19909;-67
2021/12/22 08:24:23;;;;;;;;;;;-5.90;95.20;;;;;;5003969;28;20140;-71
2021/12/22 08:26:49;;;;;;;;;;;-5.80;95.20;;;;;;4986634;28;19905;-68
2021/12/22 08:29:15;;;;;;;;;;;-5.70;95.20;;;;;;5003059;28;20299;-67
2021/12/22 08:31:40;;;;;;;;;;;-5.50;95.00;;;;;;5004108;28;19906;-67
2021/12/22 08:34:08;;;;;;;;;;;-5.60;94.90;;;;;;5004167;28;20219;-67
2021/12/22 08:39:18;;;;;;;;;;;-5.40;95.10;;;;;;5003622;28;20254;-68
2021/12/22 08:41:47;;;;;;;;;;;-5.30;94.90;;;;;;5004096;28;20071;-68
2021/12/22 08:44:14;;;;;;;;;;;-5.20;94.90;;;;;;5003934;28;19951;-68
2021/12/22 08:46:42;;;;;;;;;;;-5.10;94.70;;;;;;5003729;28;19912;-67
2021/12/22 08:49:08;;;;;;;;;;;-5.00;94.60;;;;;;5002743;28;20236;-68
2021/12/22 08:51:33;;;;;;;;;;;-4.90;94.60;;;;;;5003870;28;19913;-68
2021/12/22 08:54:00;;;;;;;;;;;-4.90;94.50;;;;;;5002263;28;19913;-66
2021/12/22 08:56:26;;;;;;;;;;;-4.70;94.50;;;;;;5002349;28;19997;-66
2021/12/22 08:58:54;;;;;;;;;;;-4.60;93.90;;;;;;5003665;28;19916;-66
2021/12/22 09:01:23;;;;;;;;;;;-4.40;93.40;;;;;;5003359;28;19905;-67
2021/12/22 09:03:50;;;;;;;;;;;-4.30;93.20;;;;;;5002743;28;19906;-66
2021/12/22 09:06:15;;;;;;;;;;;-4.30;93.20;;;;;;5003914;28;20089;-67
2021/12/22 09:08:41;;;;;;;;;;;-4.20;93.10;;;;;;5002192;28;19912;-67
2021/12/22 09:11:07;;;;;;;;;;;-4.10;92.90;;;;;;4998983;28;19912;-66
2021/12/22 09:13:35;;;;;;;;;;;-4.10;93.00;;;;;;4970140;28;19912;-69
2021/12/22 09:16:01;;;;;;;;;;;-4.20;93.10;;;;;;4983019;28;20247;-69
2021/12/22 09:18:27;;;;;;;;;;;-4.20;93.40;;;;;;4983229;28;19913;-73
2021/12/22 09:20:53;;;;;;;;;;;-4.00;93.40;;;;;;4982653;28;19906;-73
2021/12/22 09:23:19;;;;;;;;;;;-4.00;93.40;;;;;;4983364;28;19972;-70
2021/12/22 09:25:44;;;;;;;;;;;-4.00;93.70;;;;;;4982559;28;19913;-70
2021/12/22 09:28:12;;;;;;;;;;;-3.90;94.10;;;;;;4982319;28;19906;-71
2021/12/22 09:30:40;;;;;;;;;;;-3.80;94.10;;;;;;4981032;28;20086;-71
2021/12/22 09:33:07;;;;;;;;;;;-3.70;94.00;;;;;;4982359;28;19950;-71
2021/12/22 09:35:33;;;;;;;;;;;-3.50;93.90;;;;;;4982079;28;19913;-68
2021/12/22 09:37:59;;;;;;;;;;;-3.50;93.80;;;;;;4982275;28;20275;-71
2021/12/22 09:40:24;;;;;;;;;;;-3.30;93.50;;;;;;4983430;28;19905;-70
2021/12/22 09:42:50;;;;;;;;;;;-3.20;93.50;;;;;;4959473;28;19986;-71
2021/12/22 09:45:18;;;;;;;;;;;-3.00;93.20;;;;;;4954742;29;20018;-73
2021/12/22 09:48:15;;;;;;;;;;;-2.90;92.80;;;;;;4962992;29;19925;-73
2021/12/22 09:50:50;;;;;;;;;;;-2.80;92.90;;;;;;4962746;29;19906;-71
2021/12/22 09:53:20;;;;;;;;;;;-2.60;92.60;;;;;;4963990;28;20201;-71
2021/12/22 09:55:47;;;;;;;;;;;-2.40;92.10;;;;;;4963804;28;19944;-71
2021/12/22 09:58:14;;;;;;;;;;;-2.20;92.20;;;;;;4962719;29;19910;-71
2021/12/22 10:00:40;;;;;;;;;;;-2.00;91.80;;;;;;4961843;29;19917;-70
2021/12/22 10:03:07;;;;;;;;;;;-1.90;90.90;;;;;;4962324;29;19907;-69
2021/12/22 10:05:33;;;;;;;;;;;-1.70;90.80;;;;;;4963675;28;19925;-69
2021/12/22 10:08:15;;;;;;;;;;;-1.50;90.50;;;;;;4962393;29;19906;-73
2021/12/22 10:10:59;;;;;;;;;;;-1.30;89.60;;;;;;4978311;28;19949;-73
2021/12/22 10:13:26;;;;;;;;;;;-1.10;89.10;;;;;;4968832;28;20268;-73
2021/12/22 10:15:52;;;;;;;;;;;-0.90;89.20;;;;;;4961858;28;19962;-72
2021/12/22 10:18:19;;;;;;;;;;;-0.60;87.90;;;;;;4962451;28;20171;-72
2021/12/22 10:20:46;;;;;;;;;;;-0.30;86.80;;;;;;4956573;28;20223;-73
2021/12/22 10:23:29;;;;;;;;;;;0.10;84.80;;;;;;5001330;28;19909;-72
2021/12/22 10:25:56;;;;;;;;;;;0.20;83.20;;;;;;5001058;28;19967;-73
2021/12/22 10:28:23;;;;;;;;;;;0.70;83.10;;;;;;5000881;28;19988;-70
2021/12/22 10:30:55;;;;;;;;;;;1.00;80.80;;;;;;5002159;28;20032;-73
2021/12/22 10:33:22;;;;;;;;;;;1.40;79.60;;;;;;5016469;28;19906;-70
2021/12/22 10:35:56;;;;;;;;;;;1.70;75.90;;;;;;4965366;28;19906;-72
2021/12/22 10:38:24;;;;;;;;;;;2.30;75.00;;;;;;4981656;28;19910;-72
2021/12/22 10:40:54;;;;;;;;;;;3.30;69.90;;;;;;4982321;28;19913;-73
2021/12/22 10:43:25;;;;;;;;;;;4.60;66.40;;;;;;4986567;28;19906;-72
2021/12/22 10:45:55;;;;;;;;;;;5.90;58.70;;;;;;4979329;28;19912;-72
2021/12/22 10:51:33;;;;;;;;;;;7.40;52.50;;;;;;4988894;28;19976;-72
2021/12/22 10:53:59;;;;;;;;;;;8.60;49.70;;;;;;5004747;28;19976;-72
2021/12/22 10:56:29;;;;;;;;;;;9.00;48.00;;;;;;5004604;28;20275;-72
2021/12/22 10:59:09;;;;;;;;;;;9.30;45.60;;;;;;5004783;28;19997;-71
2021/12/22 11:01:39;;;;;;;;;;;8.40;47.20;;;;;;4988914;28;19913;-72
2021/12/22 11:04:30;;;;;;;;;;;8.60;45.90;;;;;;5004713;28;19928;-71
2021/12/22 11:06:56;;;;;;;;;;;7.80;49.00;;;;;;4996379;28;20026;-71
2021/12/22 11:09:23;;;;;;;;;;;7.90;49.40;;;;;;5004338;28;19952;-71
2021/12/22 11:11:55;;;;;;;;;;;7.50;49.70;;;;;;5004303;28;20275;-71
2021/12/22 11:14:25;;;;;;;;;;;7.00;50.80;;;;;;5000574;28;19906;-71
2021/12/22 11:17:00;;;;;;;;;;;6.90;51.80;;;;;;4975461;28;19914;-71
2021/12/22 11:19:49;;;;;;;;;;;6.70;52.90;;;;;;4970228;28;19911;-71
2021/12/22 11:22:16;;;;;;;;;;;6.90;52.40;;;;;;4997757;28;20204;-70
2021/12/22 11:24:44;;;;;;;;;;;6.70;52.10;;;;;;5005331;28;19906;-71
2021/12/22 11:27:10;;;;;;;;;;;6.80;51.70;;;;;;4987884;28;19906;-70
2021/12/22 11:29:38;;;;;;;;;;;6.80;51.00;;;;;;5003746;28;19909;-71
2021/12/22 11:32:05;;;;;;;;;;;6.40;53.20;;;;;;4989346;23;19925;-65
2021/12/22 11:34:34;;;;;;;;;;;6.40;52.60;;;;;;4985295;28;20152;-65
2021/12/22 11:36:59;;;;;;;;;;;6.40;52.60;;;;;;4985703;28;19924;-65
2021/12/22 11:39:25;;;;;;;;;;;6.30;53.20;;;;;;4985699;28;19937;-64
2021/12/22 11:41:56;;;;;;;;;;;5.90;53.50;;;;;;4985323;28;19906;-65
2021/12/22 11:44:26;;;;;;;;;;;5.00;56.60;;;;;;5000943;28;19965;-65
2021/12/22 11:46:56;;;;;;;;;;;5.00;57.10;;;;;;4985364;28;19906;-65
2021/12/22 11:49:23;;;;;;;;;;;4.60;58.30;;;;;;4986709;28;19906;-66
2021/12/22 11:51:48;;;;;;;;;;;4.70;58.30;;;;;;4979717;28;19911;-66
2021/12/22 11:54:14;;;;;;;;;;;4.40;59.00;;;;;;4947012;29;19907;-66
2021/12/22 11:56:46;;;;;;;;;;;4.30;58.70;;;;;;4947909;29;19907;-66
2021/12/22 11:59:34;;;;;;;;;;;4.40;60.20;;;;;;4946681;29;19990;-66
2021/12/22 12:02:33;;;;;;;;;;;4.80;58.90;;;;;;4959914;28;20143;-64
2021/12/22 12:05:26;;;;;;;;;;;4.90;58.00;;;;;;4967419;28;19907;-65
2021/12/22 12:07:59;;;;;;;;;;;4.90;57.90;;;;;;4947452;29;19910;-65
2021/12/22 12:10:40;;;;;;;;;;;5.10;57.20;;;;;;4947281;29;20240;-65
2021/12/22 12:13:22;;;;;;;;;;;5.60;55.20;;;;;;4947088;29;19907;-65
2021/12/22 12:21:59;;;;;;;;;;;6.20;53.50;;;;;;4965556;28;19980;-66
2021/12/22 12:24:31;;;;;;;;;;;7.30;51.30;;;;;;4985818;28;19906;-67
2021/12/22 12:27:00;;;;;;;;;;;8.10;49.00;;;;;;4985894;28;19951;-66
2021/12/22 12:29:55;;;;;;;;;;;8.60;46.90;;;;;;4985022;28;19906;-67
2021/12/22 12:33:00;;;;;;;;;;;8.70;46.20;;;;;;4993877;28;20002;-67
2021/12/22 12:35:28;;;;;;;;;;;9.00;45.40;;;;;;4947590;29;20110;-66
2021/12/22 12:38:20;;;;;;;;;;;8.80;44.80;;;;;;4966180;29;19913;-66
2021/12/22 12:40:54;;;;;;;;;;;8.20;46.00;;;;;;4965490;28;19907;-66
2021/12/22 12:43:42;;;;;;;;;;;7.90;47.50;;;;;;4966161;28;19907;-66
2021/12/22 12:48:49;;;;;;;;;;;6.60;49.80;;;;;;4966289;29;19906;-66
2021/12/22 12:51:20;;;;;;;;;;;5.70;51.60;;;;;;4966108;28;19913;-65
2021/12/22 12:53:49;;;;;;;;;;;5.00;53.80;;;;;;4966224;28;19978;-65
2021/12/22 12:56:16;;;;;;;;;;;4.80;55.80;;;;;;4965592;29;19906;-66
2021/12/22 12:58:55;;;;;;;;;;;4.40;56.80;;;;;;4966171;28;19910;-65
2021/12/22 13:01:46;;;;;;;;;;;4.00;57.50;;;;;;4965910;28;19906;-66
2021/12/22 13:04:36;;;;;;;;;;;3.60;59.80;;;;;;4964746;28;19906;-65
2021/12/22 13:07:17;;;;;;;;;;;3.40;60.90;;;;;;4966011;29;19907;-65
2021/12/22 13:09:47;;;;;;;;;;;3.30;60.50;;;;;;4965913;29;19977;-66
2021/12/22 13:12:19;;;;;;;;;;;3.20;60.50;;;;;;4965764;28;20243;-65
2021/12/22 13:17:36;;;;;;;;;;;2.90;62.00;;;;;;4978241;28;20186;-66
2021/12/22 13:20:03;;;;;;;;;;;2.60;62.70;;;;;;4965717;28;19918;-67
2021/12/22 13:22:33;;;;;;;;;;;2.50;63.80;;;;;;4965551;28;19907;-66
2021/12/22 13:25:37;;;;;;;;;;;2.40;64.30;;;;;;4964263;29;19946;-66
2021/12/22 13:28:09;;;;;;;;;;;2.40;64.80;;;;;;4964527;28;19938;-66
2021/12/22 13:30:47;;;;;;;;;;;2.30;65.80;;;;;;4957347;28;19918;-65
2021/12/22 13:33:23;;;;;;;;;;;2.20;66.00;;;;;;4946242;29;20201;-65
2021/12/22 13:35:55;;;;;;;;;;;2.20;66.70;;;;;;4946104;29;19974;-66
2021/12/22 13:38:31;;;;;;;;;;;2.20;66.30;;;;;;4946085;29;19910;-66
2021/12/22 13:41:07;;;;;;;;;;;2.10;66.20;;;;;;4946133;29;19906;-66
2021/12/22 13:43:35;;;;;;;;;;;2.00;67.20;;;;;;4945960;29;19968;-66
2021/12/22 13:46:20;;;;;;;;;;;1.90;67.40;;;;;;4945633;29;20083;-66
2021/12/22 13:49:04;;;;;;;;;;;1.70;68.60;;;;;;4946041;29;19906;-66
2021/12/22 13:51:33;;;;;;;;;;;1.80;67.90;;;;;;4951430;29;19906;-66
2021/12/22 13:53:59;;;;;;;;;;;1.80;68.30;;;;;;4964920;29;19910;-67
2021/12/22 13:56:26;;;;;;;;;;;1.80;68.50;;;;;;4963786;29;19921;-66
2021/12/22 13:58:55;;;;;;;;;;;1.70;68.80;;;;;;4965179;29;19981;-67
2021/12/22 14:01:28;;;;;;;;;;;1.80;69.00;;;;;;4964584;29;20113;-67
2021/12/22 14:03:56;;;;;;;;;;;1.70;69.10;;;;;;4964931;29;19977;-66
2021/12/22 14:06:25;;;;;;;;;;;1.80;68.70;;;;;;4964709;28;19933;-66
2021/12/22 14:09:06;;;;;;;;;;;1.90;69.20;;;;;;4963680;28;19921;-66
2021/12/22 14:11:45;;;;;;;;;;;2.00;68.80;;;;;;4964203;28;19932;-67
2021/12/22 14:14:44;;;;;;;;;;;2.00;69.20;;;;;;4964854;29;19914;-66
2021/12/22 14:17:13;;;;;;;;;;;2.10;68.60;;;;;;4964042;28;19945;-66
2021/12/22 14:19:50;;;;;;;;;;;2.10;68.50;;;;;;4964827;28;19915;-67
2021/12/22 14:22:21;;;;;;;;;;;2.00;69.20;;;;;;4963970;28;20141;-66
2021/12/22 14:25:05;;;;;;;;;;;2.10;69.00;;;;;;4964719;29;19929;-66
2021/12/22 14:27:38;;;;;;;;;;;2.10;68.20;;;;;;4964762;29;20243;-67
2021/12/22 14:30:20;;;;;;;;;;;2.00;68.80;;;;;;4964710;28;19907;-67
2021/12/22 14:32:55;;;;;;;;;;;1.90;69.70;;;;;;4964616;29;19981;-68
2021/12/22 14:35:21;;;;;;;;;;;1.70;70.00;;;;;;4964458;28;19906;-67
2021/12/22 14:37:55;;;;;;;;;;;1.70;70.10;;;;;;4959960;28;19989;-68
2021/12/22 14:40:23;;;;;;;;;;;1.70;71.10;;;;;;4964324;29;19913;-68
2021/12/22 14:43:03;;;;;;;;;;;1.50;71.30;;;;;;4964155;28;19906;-68
2021/12/22 14:45:33;;;;;;;;;;;1.50;72.00;;;;;;4963962;28;19906;-69
2021/12/22 14:48:20;;;;;;;;;;;1.40;71.90;;;;;;4963923;28;19913;-69
2021/12/22 14:50:57;;;;;;;;;;;1.40;72.40;;;;;;4963827;28;19910;-69
2021/12/22 14:53:43;;;;;;;;;;;1.30;72.90;;;;;;4964072;29;20013;-70
2021/12/22 14:56:19;;;;;;;;;;;1.20;73.10;;;;;;4964227;29;19910;-70
2021/12/22 14:58:46;;;;;;;;;;;1.10;73.80;;;;;;4961249;28;19950;-70
2021/12/22 15:01:12;;;;;;;;;;;0.90;74.80;;;;;;4964361;28;20127;-70
2021/12/22 15:03:37;;;;;;;;;;;0.80;75.40;;;;;;4963223;29;20204;-68
2021/12/22 15:06:08;;;;;;;;;;;0.80;75.70;;;;;;4963870;28;19914;-69